Time;durP1;ratioP1;P1;durP2;ratioP2;P2;SDS_P1;SDS_P2;PMS_P1;PMS_P2;Temp;Humidity;BMP_temperature;BMP_pressure;BME280_temperature;BME280_humidity;BME280_pressure;Samples;Min_cycle;Max_cycle;Signal;HPM_P1;HPM_P2
2023/01/01 00:00:11;;;;;;;22.75;11.20;;;;;;;;;;5057333;28;20739;-65
2023/01/01 00:02:38;;;;;;;26.35;11.65;;;;;;;;;;5065934;28;20855;-62
2023/01/01 00:05:06;;;;;;;24.25;12.27;;;;;;;;;;5067184;28;20199;-63
2023/01/01 00:07:34;;;;;;;26.97;14.97;;;;;;;;;;5050297;28;20200;-64
2023/01/01 00:12:46;;;;;;;29.53;17.13;;;;;;;;;;5049990;28;20229;-64
2023/01/01 00:15:13;;;;;;;32.45;18.90;;;;;;;;;;5049076;28;20231;-64
2023/01/01 00:17:40;;;;;;;26.38;15.23;;;;;;;;;;5063863;28;20215;-65
2023/01/01 00:20:07;;;;;;;24.53;13.70;;;;;;;;;;5056995;28;20233;-65
2023/01/01 00:22:36;;;;;;;21.10;12.23;;;;;;;;;;5063655;28;20331;-63
2023/01/01 00:25:03;;;;;;;21.80;10.40;;;;;;;;;;5067926;28;20206;-63
2023/01/01 00:27:30;;;;;;;13.67;7.97;;;;;;;;;;5058030;28;20233;-69
2023/01/01 00:29:57;;;;;;;14.60;7.87;;;;;;;;;;5052853;28;20865;-64
2023/01/01 00:32:24;;;;;;;9.00;6.50;;;;;;;;;;5051835;28;20211;-64
2023/01/01 00:34:51;;;;;;;8.53;5.83;;;;;;;;;;5064200;28;20280;-62
2023/01/01 00:37:18;;;;;;;8.77;6.17;;;;;;;;;;5057217;28;20678;-62
2023/01/01 00:39:46;;;;;;;9.77;5.40;;;;;;;;;;5049497;28;20265;-63
2023/01/01 00:42:13;;;;;;;12.03;6.10;;;;;;;;;;5068269;28;20280;-71
2023/01/01 00:44:41;;;;;;;12.50;6.40;;;;;;;;;;5068365;28;20280;-63
2023/01/01 00:47:08;;;;;;;15.73;7.20;;;;;;;;;;5060483;28;20199;-75
2023/01/01 00:49:35;;;;;;;35.60;16.10;;;;;;;;;;5056328;28;20208;-65
2023/01/01 00:52:02;;;;;;;24.63;11.97;;;;;;;;;;5067823;28;20215;-64
2023/01/01 00:54:29;;;;;;;21.40;10.17;;;;;;;;;;5067450;28;20619;-64
2023/01/01 00:56:57;;;;;;;13.60;6.93;;;;;;;;;;5058663;28;20223;-64
2023/01/01 00:59:24;;;;;;;9.33;6.47;;;;;;;;;;5051092;28;20253;-65
2023/01/01 01:01:51;;;;;;;7.10;5.00;;;;;;;;;;5062211;28;20206;-65
2023/01/01 01:04:18;;;;;;;7.57;4.93;;;;;;;;;;5065883;28;20191;-65
2023/01/01 01:06:45;;;;;;;13.90;7.13;;;;;;;;;;5051337;28;20208;-65
2023/01/01 01:09:12;;;;;;;9.67;5.33;;;;;;;;;;5049829;28;20966;-65
2023/01/01 01:11:39;;;;;;;12.33;5.77;;;;;;;;;;5061875;28;20252;-65
2023/01/01 01:14:08;;;;;;;5.63;4.17;;;;;;;;;;5062935;28;20227;-65
2023/01/01 01:16:35;;;;;;;5.13;4.53;;;;;;;;;;5068459;28;20210;-65
2023/01/01 01:19:03;;;;;;;11.00;6.17;;;;;;;;;;5061182;28;20226;-65
2023/01/01 01:21:31;;;;;;;25.17;9.27;;;;;;;;;;5053030;28;20200;-65
2023/01/01 01:23:59;;;;;;;10.33;6.33;;;;;;;;;;5056444;28;20614;-64
2023/01/01 01:26:27;;;;;;;9.33;6.10;;;;;;;;;;5061413;28;21059;-65
2023/01/01 01:28:54;;;;;;;8.03;5.53;;;;;;;;;;5069278;28;20264;-65
2023/01/01 01:31:24;;;;;;;7.43;5.77;;;;;;;;;;5059811;28;20206;-65
2023/01/01 01:33:51;;;;;;;9.77;5.90;;;;;;;;;;5057325;28;20730;-64
2023/01/01 01:36:19;;;;;;;9.00;5.43;;;;;;;;;;5068706;28;20207;-65
2023/01/01 01:38:57;;;;;;;15.30;7.27;;;;;;;;;;5062616;28;20337;-65
2023/01/01 01:41:25;;;;;;;13.20;7.83;;;;;;;;;;5045605;28;20211;-65
2023/01/01 01:43:54;;;;;;;15.67;8.47;;;;;;;;;;5048870;28;20599;-64
2023/01/01 01:46:24;;;;;;;18.80;10.43;;;;;;;;;;5068584;28;20199;-65
2023/01/01 01:48:52;;;;;;;23.20;10.17;;;;;;;;;;5069230;28;20219;-65
2023/01/01 01:51:21;;;;;;;19.47;10.40;;;;;;;;;;5052194;28;20207;-65
2023/01/01 01:53:50;;;;;;;21.03;10.73;;;;;;;;;;5049595;28;20211;-65
2023/01/01 01:56:19;;;;;;;26.33;13.30;;;;;;;;;;5063415;28;20231;-65
2023/01/01 01:58:46;;;;;;;25.17;12.50;;;;;;;;;;5053262;28;20265;-65
2023/01/01 02:01:13;;;;;;;24.30;13.73;;;;;;;;;;5054854;28;20211;-65
2023/01/01 02:03:43;;;;;;;30.60;14.40;;;;;;;;;;5053316;28;20217;-65
2023/01/01 02:06:10;;;;;;;26.10;14.40;;;;;;;;;;5063642;28;20206;-65
2023/01/01 02:08:38;;;;;;;31.00;15.83;;;;;;;;;;5062595;28;20247;-65
2023/01/01 02:11:06;;;;;;;29.80;14.90;;;;;;;;;;5066586;28;20211;-65
2023/01/01 02:13:33;;;;;;;29.57;15.03;;;;;;;;;;5049372;28;20270;-65
2023/01/01 02:16:02;;;;;;;27.80;14.80;;;;;;;;;;5058031;28;20227;-65
2023/01/01 02:18:33;;;;;;;30.30;14.40;;;;;;;;;;5059355;28;20221;-65
2023/01/01 02:21:07;;;;;;;27.87;14.33;;;;;;;;;;5054532;28;20264;-65
2023/01/01 02:24:05;;;;;;;29.93;14.23;;;;;;;;;;5064177;28;20199;-65
2023/01/01 02:26:39;;;;;;;26.73;13.57;;;;;;;;;;4992378;28;20213;-64
2023/01/01 02:29:11;;;;;;;30.50;13.17;;;;;;;;;;5052253;28;20276;-65
2023/01/01 02:31:43;;;;;;;23.27;12.93;;;;;;;;;;5055755;28;20202;-65
2023/01/01 02:34:13;;;;;;;21.73;12.17;;;;;;;;;;5049679;28;20607;-64
2023/01/01 02:36:42;;;;;;;25.50;13.13;;;;;;;;;;5051615;28;20562;-65
2023/01/01 02:39:10;;;;;;;21.43;12.27;;;;;;;;;;5058148;28;20260;-65
2023/01/01 02:41:40;;;;;;;33.53;13.60;;;;;;;;;;5064376;28;20260;-65
2023/01/01 02:44:07;;;;;;;26.13;14.70;;;;;;;;;;5066865;28;20207;-65
2023/01/01 02:46:36;;;;;;;22.63;12.87;;;;;;;;;;5066354;28;20203;-65
2023/01/01 02:49:04;;;;;;;28.80;15.10;;;;;;;;;;5052594;28;20219;-65
2023/01/01 02:51:36;;;;;;;26.13;14.20;;;;;;;;;;5050204;28;20208;-66
2023/01/01 02:54:06;;;;;;;33.80;15.20;;;;;;;;;;5063204;28;20213;-65
2023/01/01 02:56:37;;;;;;;29.97;14.90;;;;;;;;;;5056535;28;20243;-65
2023/01/01 03:01:59;;;;;;;25.20;13.47;;;;;;;;;;5052850;28;20226;-65
2023/01/01 03:04:28;;;;;;;27.43;14.57;;;;;;;;;;5051371;28;20203;-64
2023/01/01 03:06:56;;;;;;;27.57;13.90;;;;;;;;;;5051546;28;20232;-65
2023/01/01 03:09:27;;;;;;;21.87;13.50;;;;;;;;;;5051169;28;20239;-65
2023/01/01 03:11:57;;;;;;;22.67;13.37;;;;;;;;;;5056031;28;20208;-65
2023/01/01 03:14:29;;;;;;;27.30;14.77;;;;;;;;;;5067492;28;20206;-65
2023/01/01 03:17:03;;;;;;;28.47;14.07;;;;;;;;;;5068368;28;20682;-65
2023/01/01 03:19:32;;;;;;;24.20;12.97;;;;;;;;;;5054397;28;20641;-65
2023/01/01 03:22:00;;;;;;;28.93;14.50;;;;;;;;;;5062344;28;20583;-65
2023/01/01 03:24:31;;;;;;;25.93;13.77;;;;;;;;;;5054056;28;20204;-65
2023/01/01 03:27:00;;;;;;;25.20;13.87;;;;;;;;;;5065129;28;20292;-65
2023/01/01 03:29:28;;;;;;;25.90;12.30;;;;;;;;;;5068595;28;20226;-65
2023/01/01 03:31:57;;;;;;;28.80;14.03;;;;;;;;;;5055140;28;20215;-64
2023/01/01 03:34:29;;;;;;;26.20;14.13;;;;;;;;;;5052029;28;20268;-64
2023/01/01 03:36:58;;;;;;;25.73;14.10;;;;;;;;;;5064821;28;20231;-64
2023/01/01 03:39:26;;;;;;;20.90;12.60;;;;;;;;;;5059738;28;20651;-65
2023/01/01 03:41:57;;;;;;;25.87;14.10;;;;;;;;;;5066403;28;20576;-64
2023/01/01 03:44:26;;;;;;;28.53;14.47;;;;;;;;;;5060618;28;20207;-65
2023/01/01 03:46:54;;;;;;;29.83;14.53;;;;;;;;;;5051082;28;20208;-65
2023/01/01 03:49:21;;;;;;;27.10;14.43;;;;;;;;;;5063991;28;20618;-64
2023/01/01 03:54:54;;;;;;;23.87;12.20;;;;;;;;;;5059938;28;20195;-65
2023/01/01 03:57:25;;;;;;;22.47;12.50;;;;;;;;;;5053994;28;20239;-65
2023/01/01 03:59:56;;;;;;;32.53;13.63;;;;;;;;;;5057584;28;20697;-65
2023/01/01 04:02:26;;;;;;;38.97;17.90;;;;;;;;;;5050989;28;20693;-65
2023/01/01 04:04:53;;;;;;;28.17;14.90;;;;;;;;;;5063542;28;20234;-65
2023/01/01 04:07:21;;;;;;;21.17;10.77;;;;;;;;;;5052122;28;20203;-65
2023/01/01 04:09:50;;;;;;;27.83;13.50;;;;;;;;;;5056573;28;20230;-65
2023/01/01 04:12:18;;;;;;;22.93;11.47;;;;;;;;;;5067150;28;20736;-65
2023/01/01 04:14:45;;;;;;;21.40;11.40;;;;;;;;;;5064397;28;20204;-64
2023/01/01 04:17:13;;;;;;;22.07;11.70;;;;;;;;;;5067622;28;20742;-65
2023/01/01 04:19:40;;;;;;;21.07;11.13;;;;;;;;;;5065369;28;20203;-65
2023/01/01 04:22:07;;;;;;;26.77;13.47;;;;;;;;;;5052610;28;20219;-65
2023/01/01 04:24:34;;;;;;;26.97;11.87;;;;;;;;;;5055096;28;20253;-65
2023/01/01 04:27:01;;;;;;;30.57;13.27;;;;;;;;;;5065547;28;20195;-65
2023/01/01 04:29:29;;;;;;;26.80;12.47;;;;;;;;;;5067122;28;20638;-65
2023/01/01 04:31:56;;;;;;;24.23;11.97;;;;;;;;;;5051039;28;20208;-63
2023/01/01 04:34:23;;;;;;;25.43;12.23;;;;;;;;;;5058864;28;20253;-63
2023/01/01 04:36:50;;;;;;;26.13;12.77;;;;;;;;;;5063849;28;20662;-63
2023/01/01 04:39:17;;;;;;;13.47;7.80;;;;;;;;;;5056515;28;20212;-65
2023/01/01 04:41:44;;;;;;;18.80;10.13;;;;;;;;;;5056109;28;20739;-64
2023/01/01 04:44:11;;;;;;;21.20;10.37;;;;;;;;;;5064594;28;20214;-64
2023/01/01 04:46:41;;;;;;;12.93;7.27;;;;;;;;;;5070169;28;20203;-64
2023/01/01 04:49:08;;;;;;;12.00;6.27;;;;;;;;;;5057742;28;20705;-64
2023/01/01 04:51:35;;;;;;;7.30;5.80;;;;;;;;;;5049689;28;20265;-64
2023/01/01 04:54:02;;;;;;;7.27;5.23;;;;;;;;;;5052423;28;20341;-65
2023/01/01 04:56:29;;;;;;;8.37;5.20;;;;;;;;;;5051629;28;20694;-64
2023/01/01 04:58:57;;;;;;;10.83;6.60;;;;;;;;;;5059251;28;20207;-64
2023/01/01 05:01:25;;;;;;;9.10;5.77;;;;;;;;;;5048871;28;20232;-64
2023/01/01 05:03:53;;;;;;;10.97;7.00;;;;;;;;;;5054587;28;20207;-64
2023/01/01 05:06:21;;;;;;;6.60;5.07;;;;;;;;;;5066808;28;20203;-64
2023/01/01 05:08:49;;;;;;;8.90;5.03;;;;;;;;;;5067368;28;20238;-64
2023/01/01 05:11:18;;;;;;;14.13;7.00;;;;;;;;;;5055256;28;20203;-64
2023/01/01 05:13:46;;;;;;;7.13;5.27;;;;;;;;;;5049023;28;20208;-64
2023/01/01 05:16:14;;;;;;;10.53;5.60;;;;;;;;;;5061621;28;20223;-64
2023/01/01 05:18:41;;;;;;;7.67;4.00;;;;;;;;;;5051006;28;20215;-64
2023/01/01 05:21:11;;;;;;;6.17;4.03;;;;;;;;;;5061500;28;20211;-64
2023/01/01 05:23:38;;;;;;;5.83;3.67;;;;;;;;;;5048955;28;20211;-64
2023/01/01 05:26:09;;;;;;;6.27;4.37;;;;;;;;;;5048142;28;20204;-64
2023/01/01 05:28:36;;;;;;;6.30;4.27;;;;;;;;;;5049778;28;20247;-64
2023/01/01 05:31:05;;;;;;;7.87;4.77;;;;;;;;;;5054769;28;20214;-64
2023/01/01 05:33:32;;;;;;;5.97;4.43;;;;;;;;;;5049062;28;20219;-64
2023/01/01 05:35:59;;;;;;;3.93;3.50;;;;;;;;;;5059913;28;20619;-64
2023/01/01 05:38:28;;;;;;;9.67;4.73;;;;;;;;;;5068004;28;20215;-64
2023/01/01 05:40:55;;;;;;;8.43;4.47;;;;;;;;;;5056829;28;20222;-64
2023/01/01 05:43:22;;;;;;;8.07;4.60;;;;;;;;;;5063431;28;20719;-65
2023/01/01 05:45:49;;;;;;;6.63;4.63;;;;;;;;;;5056905;28;20238;-65
2023/01/01 05:48:16;;;;;;;4.83;4.30;;;;;;;;;;5059937;28;20208;-64
2023/01/01 05:50:43;;;;;;;9.00;4.47;;;;;;;;;;5058904;28;20214;-64
2023/01/01 05:53:10;;;;;;;7.90;4.63;;;;;;;;;;5055641;28;20609;-64
2023/01/01 05:55:38;;;;;;;8.33;4.30;;;;;;;;;;5068027;28;20235;-64
2023/01/01 05:58:05;;;;;;;7.73;4.83;;;;;;;;;;5059362;28;20203;-65
2023/01/01 06:00:32;;;;;;;7.07;4.10;;;;;;;;;;5066578;28;20708;-65
2023/01/01 06:03:00;;;;;;;8.27;6.10;;;;;;;;;;5055005;28;20208;-64
2023/01/01 06:05:27;;;;;;;8.33;4.90;;;;;;;;;;5047188;28;20214;-64
2023/01/01 06:07:54;;;;;;;5.80;5.07;;;;;;;;;;5047547;28;20677;-64
2023/01/01 06:10:21;;;;;;;5.40;4.00;;;;;;;;;;5048077;28;20236;-61
2023/01/01 06:12:49;;;;;;;10.70;5.30;;;;;;;;;;5047501;28;20222;-64
2023/01/01 06:15:16;;;;;;;6.90;4.90;;;;;;;;;;5049133;28;20591;-64
2023/01/01 06:17:43;;;;;;;6.87;4.13;;;;;;;;;;5066163;28;20383;-65
2023/01/01 06:20:11;;;;;;;6.70;4.17;;;;;;;;;;5067271;28;20336;-64
2023/01/01 06:22:38;;;;;;;6.67;4.50;;;;;;;;;;5050759;28;20211;-64
2023/01/01 06:25:05;;;;;;;7.93;4.63;;;;;;;;;;5059030;28;20215;-64
2023/01/01 06:27:33;;;;;;;6.87;3.93;;;;;;;;;;5048102;28;20562;-64
2023/01/01 06:30:01;;;;;;;8.20;4.70;;;;;;;;;;5050478;28;20256;-64
2023/01/01 06:32:28;;;;;;;7.03;4.53;;;;;;;;;;5066770;28;20207;-64
2023/01/01 06:34:55;;;;;;;5.67;4.50;;;;;;;;;;5052218;28;20265;-64
2023/01/01 06:37:22;;;;;;;4.90;4.10;;;;;;;;;;5050262;28;20456;-64
2023/01/01 06:39:49;;;;;;;8.17;4.03;;;;;;;;;;5051786;28;20348;-64
2023/01/01 06:42:16;;;;;;;4.80;4.30;;;;;;;;;;5067712;28;20306;-64
2023/01/01 06:44:43;;;;;;;8.33;3.37;;;;;;;;;;5051379;28;20210;-64
2023/01/01 06:47:11;;;;;;;5.70;3.97;;;;;;;;;;5048323;28;20208;-64
2023/01/01 06:49:39;;;;;;;6.40;3.70;;;;;;;;;;5048664;28;20662;-64
2023/01/01 06:52:06;;;;;;;8.43;4.03;;;;;;;;;;5047787;28;20757;-64
2023/01/01 06:54:33;;;;;;;5.03;3.47;;;;;;;;;;5047130;28;20226;-65
2023/01/01 06:57:00;;;;;;;4.83;3.77;;;;;;;;;;5046981;28;20231;-64
2023/01/01 06:59:27;;;;;;;5.43;3.67;;;;;;;;;;5046925;28;20212;-65
2023/01/01 07:01:54;;;;;;;5.67;3.50;;;;;;;;;;5060995;28;20210;-64
2023/01/01 07:04:22;;;;;;;3.47;3.17;;;;;;;;;;5054633;28;20210;-65
2023/01/01 07:06:49;;;;;;;4.33;3.03;;;;;;;;;;5066058;28;20260;-64
2023/01/01 07:09:16;;;;;;;7.23;3.73;;;;;;;;;;5057561;28;20295;-64
2023/01/01 07:11:43;;;;;;;6.03;3.17;;;;;;;;;;5048027;28;20693;-64
2023/01/01 07:14:10;;;;;;;5.03;3.83;;;;;;;;;;5050192;28;20211;-65
2023/01/01 07:16:37;;;;;;;6.33;3.07;;;;;;;;;;5060370;28;20490;-64
2023/01/01 07:19:04;;;;;;;3.43;3.00;;;;;;;;;;5046813;28;20265;-65
2023/01/01 07:21:33;;;;;;;3.93;2.90;;;;;;;;;;5046968;28;20216;-64
2023/01/01 07:24:01;;;;;;;6.73;4.03;;;;;;;;;;5045791;28;20215;-64
2023/01/01 07:26:29;;;;;;;3.60;3.20;;;;;;;;;;5049086;28;20199;-64
2023/01/01 07:28:56;;;;;;;7.27;3.13;;;;;;;;;;5064242;28;20610;-64
2023/01/01 07:31:23;;;;;;;4.77;3.50;;;;;;;;;;5065216;28;20574;-64
2023/01/01 07:33:50;;;;;;;3.30;3.00;;;;;;;;;;5047148;28;20282;-64
2023/01/01 07:36:17;;;;;;;3.90;3.00;;;;;;;;;;5055894;28;20231;-64
2023/01/01 07:38:46;;;;;;;4.17;3.40;;;;;;;;;;5067193;28;20210;-64
2023/01/01 07:41:13;;;;;;;2.87;2.43;;;;;;;;;;5058985;28;20619;-65
2023/01/01 07:43:40;;;;;;;4.73;3.17;;;;;;;;;;5068566;28;20207;-64
2023/01/01 07:46:07;;;;;;;3.50;2.80;;;;;;;;;;5055260;28;20682;-64
2023/01/01 07:48:34;;;;;;;4.87;3.30;;;;;;;;;;5059040;28;20249;-65
2023/01/01 07:51:01;;;;;;;5.93;3.43;;;;;;;;;;5063029;28;20208;-64
2023/01/01 07:53:28;;;;;;;5.23;3.17;;;;;;;;;;5052690;28;20677;-64
2023/01/01 07:55:56;;;;;;;4.33;2.83;;;;;;;;;;5067142;28;20227;-64
2023/01/01 07:58:23;;;;;;;4.13;3.10;;;;;;;;;;5063534;28;20203;-64
2023/01/01 08:00:50;;;;;;;3.60;2.67;;;;;;;;;;5065977;28;20203;-65
2023/01/01 08:03:17;;;;;;;5.97;3.30;;;;;;;;;;5049372;28;20273;-64
2023/01/01 08:05:44;;;;;;;3.23;2.93;;;;;;;;;;5048810;28;20203;-64
2023/01/01 08:08:12;;;;;;;3.30;3.03;;;;;;;;;;5049052;28;20212;-64
2023/01/01 08:10:39;;;;;;;3.00;2.70;;;;;;;;;;5058064;28;20211;-64
2023/01/01 08:13:08;;;;;;;5.40;3.37;;;;;;;;;;5055566;28;20211;-64
2023/01/01 08:15:36;;;;;;;4.20;2.70;;;;;;;;;;5050263;28;20235;-69
2023/01/01 08:18:04;;;;;;;3.53;2.70;;;;;;;;;;5051150;28;20327;-63
2023/01/01 08:20:31;;;;;;;7.80;3.27;;;;;;;;;;5065829;28;20200;-64
2023/01/01 08:22:58;;;;;;;3.53;3.23;;;;;;;;;;5068731;28;20285;-64
2023/01/01 08:25:25;;;;;;;5.53;2.87;;;;;;;;;;5063201;28;20218;-64
2023/01/01 08:27:52;;;;;;;5.93;3.47;;;;;;;;;;5057787;28;20290;-63
2023/01/01 08:30:21;;;;;;;3.00;2.80;;;;;;;;;;5055896;28;20257;-63
2023/01/01 08:32:48;;;;;;;4.23;2.83;;;;;;;;;;5049147;28;20212;-63
2023/01/01 08:35:15;;;;;;;3.13;2.70;;;;;;;;;;5058502;28;20211;-63
2023/01/01 08:37:42;;;;;;;4.47;3.10;;;;;;;;;;5061259;28;20349;-63
2023/01/01 08:40:11;;;;;;;4.07;2.53;;;;;;;;;;5055940;28;20200;-64
2023/01/01 08:42:38;;;;;;;6.70;3.00;;;;;;;;;;5068979;28;20582;-64
2023/01/01 08:45:05;;;;;;;3.53;3.20;;;;;;;;;;5059479;28;20264;-63
2023/01/01 08:47:34;;;;;;;3.30;2.47;;;;;;;;;;5048664;28;20272;-63
2023/01/01 08:50:01;;;;;;;4.30;2.50;;;;;;;;;;5047803;28;20206;-64
2023/01/01 08:52:28;;;;;;;7.80;3.33;;;;;;;;;;5048467;28;20219;-64
2023/01/01 08:54:55;;;;;;;2.80;2.60;;;;;;;;;;5048296;28;20203;-63
2023/01/01 08:57:22;;;;;;;4.43;3.13;;;;;;;;;;5049377;28;20235;-64
2023/01/01 08:59:49;;;;;;;5.97;2.70;;;;;;;;;;5049886;28;20203;-63
2023/01/01 09:02:16;;;;;;;4.20;2.50;;;;;;;;;;5060198;28;20212;-64
2023/01/01 09:04:44;;;;;;;6.27;2.50;;;;;;;;;;5056385;28;20207;-64
2023/01/01 09:07:11;;;;;;;2.77;2.43;;;;;;;;;;5048527;28;20698;-64
2023/01/01 09:09:38;;;;;;;2.33;2.03;;;;;;;;;;5048600;28;20236;-63
2023/01/01 09:12:08;;;;;;;2.80;1.80;;;;;;;;;;5048598;28;20211;-64
2023/01/01 09:14:35;;;;;;;1.80;1.70;;;;;;;;;;5047908;28;20751;-64
2023/01/01 09:17:02;;;;;;;1.30;1.30;;;;;;;;;;5062515;28;20235;-67
2023/01/01 09:19:29;;;;;;;6.47;1.40;;;;;;;;;;5065613;28;20257;-65
2023/01/01 09:21:57;;;;;;;1.73;1.30;;;;;;;;;;5057471;28;20200;-65
2023/01/01 09:24:24;;;;;;;3.90;1.40;;;;;;;;;;5051024;28;20214;-65
2023/01/01 09:26:52;;;;;;;2.80;1.60;;;;;;;;;;5068187;28;20657;-65
2023/01/01 09:29:20;;;;;;;1.53;1.27;;;;;;;;;;5065857;28;20203;-65
2023/01/01 09:31:48;;;;;;;1.93;1.00;;;;;;;;;;5050930;28;20246;-65
2023/01/01 09:34:15;;;;;;;2.53;1.03;;;;;;;;;;5049236;28;20204;-65
2023/01/01 09:36:42;;;;;;;3.23;0.80;;;;;;;;;;5062113;28;20207;-65
2023/01/01 09:39:12;;;;;;;1.80;0.90;;;;;;;;;;5066150;28;20280;-65
2023/01/01 09:41:45;;;;;;;1.57;1.20;;;;;;;;;;5053935;28;20733;-65
2023/01/01 09:44:21;;;;;;;1.80;1.10;;;;;;;;;;5068024;28;20666;-65
2023/01/01 09:46:49;;;;;;;1.67;0.80;;;;;;;;;;5064957;28;20583;-65
2023/01/01 09:49:18;;;;;;;0.90;0.90;;;;;;;;;;5056142;28;20214;-64
2023/01/01 09:51:55;;;;;;;0.90;0.90;;;;;;;;;;5050593;28;20276;-65
2023/01/01 09:54:28;;;;;;;1.70;0.80;;;;;;;;;;5067678;28;20203;-65
2023/01/01 09:56:56;;;;;;;0.97;0.80;;;;;;;;;;5056366;28;20224;-64
2023/01/01 09:59:23;;;;;;;3.07;0.83;;;;;;;;;;5061823;28;20240;-67
2023/01/01 10:01:54;;;;;;;0.67;0.60;;;;;;;;;;5056734;28;20214;-64
2023/01/01 10:04:27;;;;;;;1.13;0.90;;;;;;;;;;5061131;28;20751;-64
2023/01/01 10:06:58;;;;;;;2.93;1.00;;;;;;;;;;5061931;28;20200;-64
2023/01/01 10:09:33;;;;;;;2.97;1.20;;;;;;;;;;5048734;28;20509;-64
2023/01/01 10:12:03;;;;;;;1.27;0.90;;;;;;;;;;5059916;28;20202;-64
2023/01/01 10:14:32;;;;;;;0.97;0.80;;;;;;;;;;5064212;28;20211;-61
2023/01/01 10:17:01;;;;;;;3.83;1.08;;;;;;;;;;5054570;28;20262;-63
2023/01/01 10:19:33;;;;;;;0.73;0.73;;;;;;;;;;5063516;28;20233;-64
2023/01/01 10:22:03;;;;;;;1.67;0.90;;;;;;;;;;5056689;28;20204;-62
2023/01/01 10:24:35;;;;;;;1.10;1.00;;;;;;;;;;5061761;28;20252;-63
2023/01/01 10:27:03;;;;;;;1.55;1.30;;;;;;;;;;5068175;28;20206;-62
2023/01/01 10:29:33;;;;;;;4.22;1.23;;;;;;;;;;5067945;28;20286;-64
2023/01/01 10:32:06;;;;;;;1.63;1.30;;;;;;;;;;5064460;28;20203;-61
2023/01/01 10:34:33;;;;;;;1.92;1.20;;;;;;;;;;5060672;28;20264;-61
2023/01/01 10:37:01;;;;;;;1.90;1.00;;;;;;;;;;5046963;28;20208;-66
2023/01/01 10:39:28;;;;;;;2.17;1.10;;;;;;;;;;5048529;28;20215;-67
2023/01/01 10:41:58;;;;;;;0.88;0.73;;;;;;;;;;5049233;28;20209;-64
2023/01/01 10:44:27;;;;;;;6.43;1.10;;;;;;;;;;5052863;28;20219;-64
2023/01/01 10:46:57;;;;;;;1.40;0.77;;;;;;;;;;5066409;28;20712;-63
2023/01/01 10:49:26;;;;;;;4.05;1.00;;;;;;;;;;5051406;28;20212;-63
2023/01/01 10:51:54;;;;;;;4.82;1.10;;;;;;;;;;5059579;28;20654;-66
2023/01/01 10:54:25;;;;;;;4.18;1.27;;;;;;;;;;5053561;28;20936;-66
2023/01/01 10:56:52;;;;;;;3.75;1.27;;;;;;;;;;5067062;28;20237;-65
2023/01/01 10:59:35;;;;;;;2.65;1.33;;;;;;;;;;5059824;28;20240;-67
2023/01/01 11:02:16;;;;;;;5.82;1.13;;;;;;;;;;5051912;28;20302;-63
2023/01/01 11:04:43;;;;;;;1.20;1.15;;;;;;;;;;5048514;28;20245;-63
2023/01/01 11:07:10;;;;;;;1.42;1.13;;;;;;;;;;5051291;28;20203;-66
2023/01/01 11:09:38;;;;;;;1.15;1.02;;;;;;;;;;5047277;28;20266;-79
2023/01/01 11:12:06;;;;;;;2.65;1.20;;;;;;;;;;5051235;28;20212;-69
2023/01/01 11:14:37;;;;;;;2.80;0.95;;;;;;;;;;5065596;28;20215;-66
2023/01/01 11:17:05;;;;;;;1.08;0.93;;;;;;;;;;5066938;28;20539;-66
2023/01/01 11:19:33;;;;;;;4.45;1.30;;;;;;;;;;5064241;28;20207;-66
2023/01/01 11:22:02;;;;;;;2.88;1.60;;;;;;;;;;5069152;28;20264;-67
2023/01/01 11:24:30;;;;;;;1.80;1.15;;;;;;;;;;5059284;28;20214;-68
2023/01/01 11:27:13;;;;;;;1.08;0.98;;;;;;;;;;5057079;28;20212;-73
2023/01/01 11:29:41;;;;;;;0.80;0.80;;;;;;;;;;5054968;28;20202;-65
2023/01/01 11:32:09;;;;;;;0.80;0.80;;;;;;;;;;5066940;28;20215;-67
2023/01/01 11:34:37;;;;;;;1.50;0.98;;;;;;;;;;5061992;28;20767;-65
2023/01/01 11:37:08;;;;;;;1.20;1.10;;;;;;;;;;5055517;28;20207;-65
2023/01/01 11:39:36;;;;;;;0.90;0.90;;;;;;;;;;5052357;28;20204;-65
2023/01/01 11:42:04;;;;;;;2.60;1.23;;;;;;;;;;5057048;28;20294;-66
2023/01/01 11:44:34;;;;;;;1.00;0.80;;;;;;;;;;5058370;28;20211;-65
2023/01/01 11:47:03;;;;;;;1.85;1.02;;;;;;;;;;5060679;28;20211;-63
2023/01/01 11:49:30;;;;;;;4.47;1.17;;;;;;;;;;5065831;28;20214;-66
2023/01/01 11:51:57;;;;;;;1.20;1.20;;;;;;;;;;5049981;28;20216;-66
2023/01/01 11:54:26;;;;;;;2.25;1.20;;;;;;;;;;5053441;28;20269;-64
2023/01/01 11:56:54;;;;;;;0.68;0.68;;;;;;;;;;5050222;28;20231;-66
2023/01/01 11:59:24;;;;;;;2.17;1.10;;;;;;;;;;5048983;28;20260;-64
2023/01/01 12:01:52;;;;;;;2.67;1.00;;;;;;;;;;5061231;28;20214;-66
2023/01/01 12:04:24;;;;;;;2.20;1.00;;;;;;;;;;5067283;28;20209;-64
2023/01/01 12:06:53;;;;;;;3.25;0.90;;;;;;;;;;5070033;28;20215;-66
2023/01/01 12:09:22;;;;;;;2.83;0.95;;;;;;;;;;5065241;28;20616;-65
2023/01/01 12:11:52;;;;;;;1.08;0.98;;;;;;;;;;5050661;28;20681;-62
2023/01/01 12:14:23;;;;;;;1.13;0.90;;;;;;;;;;5051540;28;20265;-72
2023/01/01 12:16:53;;;;;;;1.48;1.10;;;;;;;;;;5053315;28;20219;-63
2023/01/01 12:19:23;;;;;;;1.38;1.02;;;;;;;;;;5058683;28;20270;-67
2023/01/01 12:21:52;;;;;;;1.08;1.00;;;;;;;;;;5059579;28;20207;-62
2023/01/01 12:24:19;;;;;;;3.53;1.00;;;;;;;;;;5058490;28;20294;-63
2023/01/01 12:26:55;;;;;;;2.30;0.88;;;;;;;;;;5062367;28;20207;-64
2023/01/01 12:29:40;;;;;;;3.83;1.08;;;;;;;;;;5069831;28;20577;-63
2023/01/01 12:32:09;;;;;;;3.60;0.90;;;;;;;;;;5069350;28;20222;-64
2023/01/01 12:34:40;;;;;;;2.63;1.05;;;;;;;;;;5059892;28;20277;-63
2023/01/01 12:37:12;;;;;;;4.03;1.25;;;;;;;;;;5051478;28;20208;-64
2023/01/01 12:39:49;;;;;;;1.55;0.95;;;;;;;;;;5061471;28;20623;-64
2023/01/01 12:42:19;;;;;;;1.95;0.95;;;;;;;;;;5050664;28;20212;-62
2023/01/01 12:44:52;;;;;;;2.17;0.98;;;;;;;;;;5059956;28;21815;-62
2023/01/01 12:47:24;;;;;;;1.75;0.77;;;;;;;;;;5052427;28;20604;-63
2023/01/01 12:50:03;;;;;;;1.35;1.25;;;;;;;;;;5051745;28;20677;-61
2023/01/01 12:52:35;;;;;;;2.08;0.93;;;;;;;;;;5063428;28;20218;-61
2023/01/01 12:55:24;;;;;;;1.27;1.27;;;;;;;;;;5061811;28;20210;-63
2023/01/01 12:57:54;;;;;;;0.80;0.80;;;;;;;;;;5061157;28;20232;-62
2023/01/01 13:00:21;;;;;;;1.20;1.10;;;;;;;;;;5060341;28;20212;-62
2023/01/01 13:02:50;;;;;;;1.80;1.30;;;;;;;;;;5068660;28;20207;-61
2023/01/01 13:05:20;;;;;;;1.27;0.98;;;;;;;;;;5062591;28;20379;-61
2023/01/01 13:07:49;;;;;;;2.63;1.13;;;;;;;;;;5052205;28;20315;-61
2023/01/01 13:10:21;;;;;;;3.92;1.25;;;;;;;;;;5049645;28;20238;-62
2023/01/01 13:12:48;;;;;;;3.35;1.30;;;;;;;;;;5063346;28;20207;-64
2023/01/01 13:15:34;;;;;;;2.25;1.50;;;;;;;;;;5061291;28;20211;-61
2023/01/01 13:18:01;;;;;;;1.13;1.00;;;;;;;;;;5060825;28;20227;-62
2023/01/01 13:20:30;;;;;;;3.30;1.40;;;;;;;;;;5065603;28;20299;-61
2023/01/01 13:22:57;;;;;;;3.22;1.02;;;;;;;;;;5055074;28;20265;-63
2023/01/01 13:25:24;;;;;;;3.42;1.25;;;;;;;;;;5050855;28;20216;-63
2023/01/01 13:28:05;;;;;;;1.27;1.10;;;;;;;;;;5050021;28;20290;-60
2023/01/01 13:30:51;;;;;;;9.15;1.85;;;;;;;;;;5053845;28;20229;-60
2023/01/01 13:33:23;;;;;;;0.95;0.95;;;;;;;;;;5049062;28;20288;-62
2023/01/01 13:36:04;;;;;;;5.50;1.33;;;;;;;;;;5049995;28;20289;-61
2023/01/01 13:38:49;;;;;;;3.95;1.58;;;;;;;;;;5047672;28;20231;-63
2023/01/01 13:41:29;;;;;;;3.13;1.15;;;;;;;;;;5055441;28;20207;-63
2023/01/01 13:44:11;;;;;;;2.78;1.08;;;;;;;;;;5048413;28;20204;-65
2023/01/01 13:46:42;;;;;;;3.50;1.23;;;;;;;;;;5047281;28;20784;-65
2023/01/01 13:49:19;;;;;;;1.45;1.35;;;;;;;;;;5048166;28;20674;-64
2023/01/01 13:51:53;;;;;;;1.25;1.10;;;;;;;;;;5048548;28;20207;-65
2023/01/01 13:54:38;;;;;;;1.50;1.10;;;;;;;;;;5057103;28;20214;-64
2023/01/01 13:57:11;;;;;;;1.17;1.13;;;;;;;;;;5063634;28;20227;-64
2023/01/01 13:59:56;;;;;;;0.98;0.98;;;;;;;;;;5056217;28;20227;-64
2023/01/01 14:02:24;;;;;;;1.30;1.20;;;;;;;;;;5046547;28;20223;-66
2023/01/01 14:04:53;;;;;;;3.53;1.40;;;;;;;;;;5061044;28;20673;-64
2023/01/01 14:07:22;;;;;;;2.05;1.33;;;;;;;;;;5058187;28;20215;-65
2023/01/01 14:09:51;;;;;;;3.38;1.42;;;;;;;;;;5052546;28;20519;-64
2023/01/01 14:12:18;;;;;;;2.72;1.48;;;;;;;;;;5048111;28;20211;-65
2023/01/01 14:14:46;;;;;;;3.17;1.40;;;;;;;;;;5047565;28;20214;-66
2023/01/01 14:17:15;;;;;;;4.57;1.40;;;;;;;;;;5054736;28;20214;-67
2023/01/01 14:19:42;;;;;;;2.60;1.40;;;;;;;;;;5067581;28;20234;-65
2023/01/01 14:22:10;;;;;;;1.05;1.05;;;;;;;;;;5066298;28;20203;-65
2023/01/01 14:24:40;;;;;;;1.52;1.17;;;;;;;;;;5053865;28;20212;-65
2023/01/01 14:27:09;;;;;;;4.47;1.35;;;;;;;;;;5062547;28;20645;-65
2023/01/01 14:29:36;;;;;;;2.45;1.23;;;;;;;;;;5065746;28;20203;-64
2023/01/01 14:32:13;;;;;;;3.63;1.67;;;;;;;;;;5060300;28;20218;-65
2023/01/01 14:34:40;;;;;;;1.63;1.05;;;;;;;;;;5068157;28;20210;-66
2023/01/01 14:37:19;;;;;;;4.28;1.42;;;;;;;;;;5066178;28;20213;-67
2023/01/01 14:39:46;;;;;;;1.80;1.20;;;;;;;;;;5067370;28;20313;-66
2023/01/01 14:42:16;;;;;;;4.45;1.30;;;;;;;;;;5059090;28;20216;-68
2023/01/01 14:44:44;;;;;;;3.97;1.10;;;;;;;;;;5054065;28;20272;-68
2023/01/01 14:47:19;;;;;;;1.85;1.55;;;;;;;;;;5057807;28;20207;-66
2023/01/01 14:49:47;;;;;;;2.13;1.35;;;;;;;;;;5055976;28;20195;-66
2023/01/01 14:52:19;;;;;;;2.35;1.48;;;;;;;;;;5052851;28;20269;-67
2023/01/01 14:54:47;;;;;;;2.97;1.42;;;;;;;;;;5050171;28;20207;-66